Time;durP1;ratioP1;P1;durP2;ratioP2;P2;SDS_P1;SDS_P2;PMS_P1;PMS_P2;Temp;Humidity;BMP_temperature;BMP_pressure;BME280_temperature;BME280_humidity;BME280_pressure;Samples;Min_cycle;Max_cycle;Signal;HPM_P1;HPM_P2
2024/01/04 00:02:10;;;;;;;0.57;0.57;;;;;;;6.02;100.00;99607.16;5020567;28;20058;-78
2024/01/04 00:04:35;;;;;;;0.22;0.22;;;;;;;6.10;100.00;99647.13;5016231;28;20777;-76
2024/01/04 00:07:01;;;;;;;0.30;0.30;;;;;;;6.23;100.00;99640.25;5020565;28;20482;-77
2024/01/04 00:09:26;;;;;;;2.50;2.35;;;;;;;5.79;100.00;99582.69;5022089;28;21101;-77
2024/01/04 00:11:51;;;;;;;0.30;0.30;;;;;;;6.29;100.00;99675.88;5018650;28;20100;-77
2024/01/04 00:14:17;;;;;;;0.57;0.57;;;;;;;5.88;100.00;99604.44;5017854;28;20472;-76
2024/01/04 00:16:42;;;;;;;0.30;0.30;;;;;;;6.42;100.00;99706.38;5020424;28;20091;-77
2024/01/04 00:19:08;;;;;;;0.30;0.30;;;;;;;6.31;100.00;99695.88;5016420;28;20057;-78
2024/01/04 00:21:33;;;;;;;4.05;3.70;;;;;;;6.29;100.00;99702.81;5020766;28;20029;-77
2024/01/04 00:24:01;;;;;;;0.20;0.20;;;;;;;6.30;100.00;99698.50;5015367;28;20053;-77
2024/01/04 00:26:26;;;;;;;0.80;0.80;;;;;;;6.29;100.00;99694.97;5019147;28;20505;-76
2024/01/04 00:28:53;;;;;;;0.32;0.32;;;;;;;6.33;100.00;99715.00;5018157;28;20099;-77
2024/01/04 00:31:18;;;;;;;1.05;1.05;;;;;;;5.83;100.00;99637.41;4997340;28;20056;-76
2024/01/04 00:33:44;;;;;;;0.20;0.20;;;;;;;6.07;100.00;99700.94;5018382;28;20041;-78
2024/01/04 00:36:10;;;;;;;2.67;2.47;;;;;;;5.99;100.00;99729.50;5024591;28;20473;-77
2024/01/04 00:38:37;;;;;;;0.40;0.40;;;;;;;6.04;100.00;99713.94;5023267;28;20047;-76
2024/01/04 00:41:02;;;;;;;0.30;0.30;;;;;;;6.02;100.00;99708.72;5021929;28;20050;-78
2024/01/04 00:43:28;;;;;;;0.30;0.30;;;;;;;6.07;100.00;99721.78;5011738;28;20558;-77
2024/01/04 00:45:53;;;;;;;0.30;0.30;;;;;;;5.57;100.00;99634.63;5031338;28;20053;-77
2024/01/04 00:48:19;;;;;;;0.30;0.30;;;;;;;5.88;100.00;99698.19;5018393;28;20069;-77
2024/01/04 00:50:44;;;;;;;5.43;3.05;;;;;;;5.51;100.00;99637.16;5031883;28;20081;-78
2024/01/04 00:53:10;;;;;;;0.30;0.30;;;;;;;5.70;100.00;99685.00;5019319;28;20561;-77
2024/01/04 00:55:35;;;;;;;0.20;0.20;;;;;;;5.51;100.00;99631.97;5022052;28;20041;-77
2024/01/04 00:58:03;;;;;;;7.75;7.32;;;;;;;5.37;100.00;99623.16;5021921;28;20057;-79
2024/01/04 01:00:30;;;;;;;0.82;0.82;;;;;;;5.86;100.00;99706.84;5017958;28;20120;-78
2024/01/04 01:02:55;;;;;;;2.58;2.47;;;;;;;6.01;100.00;99729.53;5019457;28;20634;-77
2024/01/04 01:05:20;;;;;;;0.30;0.30;;;;;;;5.99;100.00;99732.13;5019812;28;20042;-77
2024/01/04 01:07:46;;;;;;;2.90;2.80;;;;;;;6.00;100.00;99741.69;5024200;28;20161;-77
2024/01/04 01:10:12;;;;;;;0.32;0.32;;;;;;;6.04;100.00;99711.31;5021154;28;21434;-77
2024/01/04 01:12:37;;;;;;;0.30;0.30;;;;;;;6.19;100.00;99745.28;5022875;28;20075;-78
2024/01/04 01:15:03;;;;;;;0.20;0.20;;;;;;;6.19;100.00;99740.09;5024962;28;20046;-78
2024/01/04 01:17:30;;;;;;;1.95;1.85;;;;;;;6.15;100.00;99732.25;5029966;28;20049;-77
2024/01/04 01:19:56;;;;;;;0.30;0.30;;;;;;;6.31;100.00;99747.97;5021381;28;20053;-77
2024/01/04 01:22:21;;;;;;;0.30;0.30;;;;;;;4.81;100.00;99471.03;5025777;28;20382;-78
2024/01/04 01:24:47;;;;;;;0.40;0.40;;;;;;;6.39;100.00;99734.13;5025019;28;20132;-77
2024/01/04 01:27:12;;;;;;;5.50;5.20;;;;;;;5.36;100.00;99561.59;5031539;28;20044;-79
2024/01/04 01:29:38;;;;;;;0.30;0.30;;;;;;;6.08;100.00;99713.97;5021078;28;20053;-76
2024/01/04 01:32:04;;;;;;;0.45;0.45;;;;;;;6.10;100.00;99709.63;5026199;28;20055;-79
2024/01/04 01:34:29;;;;;;;1.58;1.48;;;;;;;5.60;100.00;99623.34;5026657;28;20183;-78
2024/01/04 01:36:58;;;;;;;0.50;0.50;;;;;;;5.83;100.00;99659.94;5019117;28;20144;-79
2024/01/04 01:39:23;;;;;;;3.13;1.95;;;;;;;6.11;100.00;99719.22;5032856;28;20033;-77
2024/01/04 01:41:51;;;;;;;0.20;0.20;;;;;;;5.60;100.00;99623.34;5024830;28;20039;-77
2024/01/04 01:44:17;;;;;;;0.40;0.40;;;;;;;6.23;100.00;99715.81;5023101;28;20699;-78
2024/01/04 01:46:43;;;;;;;0.50;0.50;;;;;;;5.71;100.00;99626.88;5017087;28;20054;-77
2024/01/04 01:49:09;;;;;;;0.25;0.25;;;;;;;6.18;100.00;99721.84;5036722;28;20049;-77
2024/01/04 01:51:35;;;;;;;0.30;0.30;;;;;;;5.87;100.00;99672.97;5024775;28;20417;-77
2024/01/04 01:54:03;;;;;;;0.50;0.40;;;;;;;5.66;100.00;99637.25;5030090;28;20402;-78
2024/01/04 01:56:29;;;;;;;0.65;0.65;;;;;;;5.85;100.00;99661.72;5025451;28;20054;-78
2024/01/04 01:58:57;;;;;;;0.40;0.40;;;;;;;6.30;100.00;99737.56;5029207;28;20215;-79
2024/01/04 02:01:22;;;;;;;0.45;0.45;;;;;;;6.01;100.00;99703.50;5029685;28;20045;-77
2024/01/04 02:03:49;;;;;;;0.40;0.40;;;;;;;5.63;100.00;99628.56;5029120;28;20056;-77
2024/01/04 02:06:15;;;;;;;1.00;1.00;;;;;;;6.26;100.00;99739.25;5030276;28;20124;-76
2024/01/04 02:08:44;;;;;;;0.50;0.50;;;;;;;6.12;100.00;99714.88;5030627;28;20444;-77
2024/01/04 02:11:09;;;;;;;0.30;0.30;;;;;;;5.72;100.00;99652.06;5025512;28;20505;-76
2024/01/04 02:13:35;;;;;;;1.15;1.15;;;;;;;5.74;100.00;99667.72;5021598;28;20046;-76
2024/01/04 02:16:00;;;;;;;0.38;0.38;;;;;;;6.08;100.00;99729.59;5026477;28;20049;-76
2024/01/04 02:18:26;;;;;;;0.30;0.30;;;;;;;6.25;100.00;99732.31;5023995;28;20366;-76
2024/01/04 02:20:52;;;;;;;2.47;2.33;;;;;;;6.24;100.00;99740.13;5026687;28;20081;-75
2024/01/04 02:23:18;;;;;;;1.13;1.10;;;;;;;6.21;100.00;99747.94;5025382;28;20131;-77
2024/01/04 02:25:44;;;;;;;0.65;0.65;;;;;;;6.26;100.00;99738.41;5023269;28;20530;-79
2024/01/04 02:28:10;;;;;;;0.30;0.30;;;;;;;5.78;100.00;99652.09;5031953;28;20127;-77
2024/01/04 02:30:35;;;;;;;0.43;0.43;;;;;;;6.09;100.00;99702.69;5031079;28;20045;-78
2024/01/04 02:33:01;;;;;;;5.20;4.68;;;;;;;6.12;100.00;99717.47;5040852;28;20045;-77
2024/01/04 02:35:26;;;;;;;0.40;0.40;;;;;;;5.85;100.00;99668.63;5023911;28;20045;-78
2024/01/04 02:37:55;;;;;;;0.30;0.30;;;;;;;5.55;100.00;99625.03;5025099;28;20053;-75
2024/01/04 02:40:21;;;;;;;0.20;0.20;;;;;;;5.86;100.00;99679.06;5016252;28;20084;-75
2024/01/04 02:42:47;;;;;;;0.40;0.40;;;;;;;5.04;100.00;99541.41;5020921;28;20042;-77
2024/01/04 02:45:14;;;;;;;0.65;0.65;;;;;;;6.28;100.00;99721.06;5023054;28;20037;-78
2024/01/04 02:47:40;;;;;;;0.40;0.40;;;;;;;5.58;100.00;99596.44;5032732;28;20056;-76
2024/01/04 02:50:05;;;;;;;0.20;0.20;;;;;;;6.28;100.00;99726.25;5035745;28;20064;-77
2024/01/04 02:52:31;;;;;;;0.30;0.30;;;;;;;5.93;100.00;99662.63;5029086;28;20073;-76
2024/01/04 02:54:56;;;;;;;0.30;0.30;;;;;;;6.29;100.00;99718.44;5022929;28;20050;-77
2024/01/04 02:57:22;;;;;;;0.30;0.30;;;;;;;6.36;100.00;99726.28;5009698;28;20048;-76
2024/01/04 02:59:47;;;;;;;3.90;3.70;;;;;;;6.21;100.00;99703.66;5024200;28;20512;-76
2024/01/04 03:02:15;;;;;;;0.85;0.85;;;;;;;5.72;100.00;99618.22;5029263;28;20721;-75
2024/01/04 03:04:42;;;;;;;0.35;0.35;;;;;;;6.37;100.00;99728.03;5009884;28;20103;-77
2024/01/04 03:07:08;;;;;;;0.20;0.20;;;;;;;6.31;100.00;99719.31;5022626;28;20061;-76
2024/01/04 03:09:33;;;;;;;0.30;0.30;;;;;;;5.87;100.00;99653.91;5026589;28;20182;-76
2024/01/04 03:11:59;;;;;;;0.30;0.30;;;;;;;6.11;100.00;99685.34;5015058;28;20042;-77
2024/01/04 03:14:24;;;;;;;0.55;0.55;;;;;;;5.71;100.00;99603.47;5020517;28;20061;-76
2024/01/04 03:16:50;;;;;;;1.05;0.60;;;;;;;6.16;100.00;99677.56;5018296;28;20049;-77
2024/01/04 03:19:15;;;;;;;0.30;0.30;;;;;;;5.84;100.00;99628.72;5018947;28;20939;-76
2024/01/04 03:21:41;;;;;;;0.50;0.50;;;;;;;6.29;100.00;99708.00;5020698;28;20048;-77
2024/01/04 03:24:06;;;;;;;0.47;0.47;;;;;;;5.97;100.00;99634.91;5027477;28;20040;-78
2024/01/04 03:26:32;;;;;;;0.30;0.30;;;;;;;5.86;100.00;99608.78;5021819;28;20056;-77
2024/01/04 03:28:58;;;;;;;0.30;0.30;;;;;;;6.21;100.00;99673.25;5026901;28;20073;-78
2024/01/04 03:31:23;;;;;;;0.65;0.65;;;;;;;6.19;100.00;99664.56;5029583;28;20049;-77
2024/01/04 03:33:49;;;;;;;1.38;1.38;;;;;;;6.23;100.00;99663.72;5012857;28;20482;-76
2024/01/04 03:36:16;;;;;;;0.30;0.30;;;;;;;6.23;100.00;99657.63;5018618;28;20033;-76
2024/01/04 03:38:42;;;;;;;0.40;0.40;;;;;;;6.40;100.00;99689.84;5017262;28;21939;-76
2024/01/04 03:41:08;;;;;;;0.30;0.30;;;;;;;5.75;100.00;99575.72;5018764;28;20048;-76
2024/01/04 03:43:34;;;;;;;2.15;2.05;;;;;;;6.40;100.00;99683.78;5014517;28;20042;-76
2024/01/04 03:46:00;;;;;;;0.20;0.20;;;;;;;5.93;100.00;99597.53;5016359;28;20052;-75
2024/01/04 03:48:26;;;;;;;0.30;0.30;;;;;;;6.48;100.00;99685.53;5018871;28;20033;-76
2024/01/04 03:50:51;;;;;;;2.83;0.50;;;;;;;6.11;100.00;99622.84;5018239;28;20196;-77
2024/01/04 03:53:17;;;;;;;0.50;0.50;;;;;;;6.39;100.00;99677.69;5023227;28;20148;-76
2024/01/04 03:55:42;;;;;;;0.40;0.40;;;;;;;5.76;100.00;99572.25;5031754;28;20044;-75
2024/01/04 03:58:08;;;;;;;1.95;0.63;;;;;;;5.96;100.00;99599.31;5024157;28;20127;-75
2024/01/04 04:00:33;;;;;;;0.30;0.30;;;;;;;6.36;100.00;99667.22;5020007;28;20754;-76
2024/01/04 04:02:59;;;;;;;0.30;0.30;;;;;;;6.00;100.00;99601.06;5024629;28;20045;-76
2024/01/04 04:05:24;;;;;;;0.20;0.20;;;;;;;5.88;100.00;99581.03;5021590;28;20077;-77
2024/01/04 04:07:50;;;;;;;0.20;0.20;;;;;;;6.02;100.00;99606.31;5019884;28;20092;-77
2024/01/04 04:10:16;;;;;;;0.60;0.60;;;;;;;6.00;100.00;99603.69;5027512;28;20076;-76
2024/01/04 04:12:41;;;;;;;0.30;0.30;;;;;;;5.92;100.00;99593.19;5013866;28;20088;-75
2024/01/04 04:15:08;;;;;;;0.22;0.22;;;;;;;6.45;100.00;99658.59;5007054;28;20406;-77
2024/01/04 04:17:34;;;;;;;0.47;0.47;;;;;;;5.92;100.00;99580.19;5025733;28;20052;-76
2024/01/04 04:20:00;;;;;;;0.73;0.73;;;;;;;6.55;100.00;99684.72;5015941;28;20356;-77
2024/01/04 04:22:25;;;;;;;0.30;0.30;;;;;;;5.98;100.00;99597.59;5020101;28;20056;-76
2024/01/04 04:24:51;;;;;;;1.83;1.75;;;;;;;6.38;100.00;99667.25;5019375;28;20072;-77
2024/01/04 04:27:16;;;;;;;0.68;0.68;;;;;;;6.51;100.00;99685.56;5006645;28;20124;-78
2024/01/04 04:29:42;;;;;;;0.32;0.32;;;;;;;6.21;100.00;99646.34;5023204;28;20053;-76
2024/01/04 04:32:08;;;;;;;1.13;1.02;;;;;;;5.85;100.00;99590.53;5001570;28;20088;-77
2024/01/04 04:34:34;;;;;;;0.20;0.20;;;;;;;5.69;100.00;99567.03;5019034;28;20068;-78
2024/01/04 04:37:00;;;;;;;0.25;0.25;;;;;;;6.09;100.00;99644.53;5015063;28;20139;-77
2024/01/04 04:39:25;;;;;;;0.30;0.30;;;;;;;6.33;100.00;99685.47;5023063;28;20033;-77
2024/01/04 04:41:51;;;;;;;0.28;0.28;;;;;;;6.30;100.00;99670.69;5015086;28;20045;-78
2024/01/04 04:44:16;;;;;;;0.20;0.20;;;;;;;6.27;100.00;99667.19;5011061;28;20100;-79
2024/01/04 04:46:41;;;;;;;0.20;0.20;;;;;;;6.19;100.00;99648.91;5016945;28;20166;-77
2024/01/04 04:49:07;;;;;;;0.50;0.50;;;;;;;6.26;100.00;99658.50;5021714;28;20116;-76
2024/01/04 04:51:33;;;;;;;1.13;1.13;;;;;;;5.84;100.00;99587.06;5025909;28;20128;-75
2024/01/04 04:53:58;;;;;;;0.20;0.20;;;;;;;5.99;100.00;99625.34;5027158;28;20089;-76
2024/01/04 04:56:24;;;;;;;0.20;0.20;;;;;;;6.38;100.00;99685.50;5020767;28;20148;-77
2024/01/04 04:58:50;;;;;;;0.20;0.20;;;;;;;5.77;100.00;99579.22;5019790;28;20148;-77
2024/01/04 05:01:16;;;;;;;1.50;1.40;;;;;;;5.78;100.00;99584.41;5025316;28;20049;-75
2024/01/04 05:03:42;;;;;;;3.90;3.60;;;;;;;5.87;100.00;99588.81;5001919;28;20704;-76
2024/01/04 05:06:08;;;;;;;1.17;1.17;;;;;;;6.35;100.00;99665.50;5030680;28;20131;-75
2024/01/04 05:08:34;;;;;;;0.30;0.30;;;;;;;6.33;100.00;99667.22;5002504;28;20366;-76
2024/01/04 05:10:59;;;;;;;22.08;10.73;;;;;;;6.04;100.00;99597.63;5021018;28;20041;-78
2024/01/04 05:13:25;;;;;;;0.20;0.20;;;;;;;6.39;100.00;99671.59;5006553;28;20082;-77
2024/01/04 05:15:50;;;;;;;0.30;0.30;;;;;;;6.27;100.00;99656.75;5023246;28;20186;-75
2024/01/04 05:18:16;;;;;;;0.85;0.85;;;;;;;6.32;100.00;99668.97;5021639;28;20448;-77
2024/01/04 05:20:42;;;;;;;4.18;1.48;;;;;;;6.24;100.00;99665.44;5032235;28;20037;-77
2024/01/04 05:23:07;;;;;;;0.25;0.25;;;;;;;5.85;100.00;99598.34;5018096;28;20444;-77
2024/01/04 05:25:33;;;;;;;1.20;1.10;;;;;;;5.83;100.00;99613.06;5020014;28;20103;-79
2024/01/04 05:27:59;;;;;;;0.32;0.32;;;;;;;6.28;100.00;99680.22;5017697;28;20930;-78
2024/01/04 05:30:25;;;;;;;4.47;0.63;;;;;;;5.52;100.00;99581.66;5020783;28;20057;-78
2024/01/04 05:32:50;;;;;;;0.20;0.20;;;;;;;5.91;100.00;99632.22;5025171;28;20684;-77
2024/01/04 05:35:16;;;;;;;0.43;0.43;;;;;;;5.59;100.00;99577.34;5021293;28;20428;-78
2024/01/04 05:37:41;;;;;;;0.32;0.32;;;;;;;5.99;100.00;99661.81;5015749;28;20942;-76
2024/01/04 05:40:09;;;;;;;0.25;0.25;;;;;;;6.10;100.00;99695.75;5005772;28;20148;-77
2024/01/04 05:42:35;;;;;;;0.30;0.30;;;;;;;6.09;100.00;99709.66;5018199;28;20084;-78
2024/01/04 05:45:00;;;;;;;0.30;0.30;;;;;;;5.72;100.00;99623.44;5021533;28;20488;-76
2024/01/04 05:47:26;;;;;;;0.30;0.30;;;;;;;5.59;100.00;99608.59;5025382;28;20521;-76
2024/01/04 05:49:51;;;;;;;0.20;0.20;;;;;;;5.47;100.00;99632.78;4999948;28;20064;-75
2024/01/04 05:52:17;;;;;;;0.30;0.30;;;;;;;5.74;100.00;99680.72;5005381;28;20164;-76
2024/01/04 05:54:42;;;;;;;0.30;0.30;;;;;;;5.41;100.00;99625.81;5032436;28;20053;-77
2024/01/04 05:57:08;;;;;;;0.75;0.75;;;;;;;5.75;100.00;99692.88;5030080;28;20040;-77
2024/01/04 05:59:34;;;;;;;0.20;0.20;;;;;;;5.71;100.00;99698.06;5029964;28;20077;-77
2024/01/04 06:02:00;;;;;;;0.68;0.68;;;;;;;5.48;100.00;99653.63;5025412;28;20147;-77
2024/01/04 06:04:25;;;;;;;0.20;0.20;;;;;;;5.28;100.00;99603.16;5028033;28;20147;-77
2024/01/04 06:06:53;;;;;;;0.30;0.30;;;;;;;5.43;100.00;99634.50;5025510;28;20052;-76
2024/01/04 06:09:20;;;;;;;0.30;0.30;;;;;;;5.90;100.00;99706.00;5032321;28;20036;-77
2024/01/04 06:11:53;;;;;;;0.30;0.30;;;;;;;5.63;100.00;99688.44;5020175;28;20040;-76
2024/01/04 06:14:19;;;;;;;1.80;1.00;;;;;;;5.81;100.00;99717.22;5025061;28;20084;-76
2024/01/04 06:16:44;;;;;;;0.68;0.68;;;;;;;5.87;100.00;99724.19;5027997;28;20908;-77
2024/01/04 06:19:10;;;;;;;0.30;0.30;;;;;;;5.89;100.00;99718.13;5001502;28;20140;-76
2024/01/04 06:21:36;;;;;;;0.20;0.20;;;;;;;5.84;100.00;99729.38;5010544;28;20087;-76
2024/01/04 06:24:03;;;;;;;0.28;0.28;;;;;;;5.88;100.00;99718.13;5029346;28;20037;-77
2024/01/04 06:26:29;;;;;;;0.52;0.52;;;;;;;5.86;100.00;99712.03;5030078;28;20093;-75
2024/01/04 06:28:55;;;;;;;0.30;0.30;;;;;;;5.85;100.00;99702.47;5017588;28;20117;-77
2024/01/04 06:31:20;;;;;;;0.30;0.30;;;;;;;5.31;100.00;99634.38;5016161;28;20120;-77
2024/01/04 06:33:46;;;;;;;5.00;4.70;;;;;;;5.20;100.00;99617.84;5022282;28;20570;-76
2024/01/04 06:36:11;;;;;;;1.20;1.15;;;;;;;5.44;100.00;99646.63;5030637;28;20474;-76
2024/01/04 06:38:37;;;;;;;0.60;0.60;;;;;;;5.54;100.00;99668.41;5031785;28;20472;-77
2024/01/04 06:41:03;;;;;;;0.28;0.28;;;;;;;5.91;100.00;99715.56;5036089;28;20118;-78
2024/01/04 06:43:33;;;;;;;0.30;0.30;;;;;;;5.79;100.00;99705.06;5033706;28;20071;-77
2024/01/04 06:45:58;;;;;;;0.20;0.20;;;;;;;5.43;100.00;99620.59;5023533;28;20045;-77
2024/01/04 06:48:25;;;;;;;2.30;1.88;;;;;;;5.87;100.00;99700.75;5033998;28;20032;-77
2024/01/04 06:50:51;;;;;;;4.63;4.32;;;;;;;5.84;100.00;99692.94;5035390;28;20033;-76
2024/01/04 06:53:16;;;;;;;0.30;0.30;;;;;;;5.98;100.00;99719.97;5031932;28;20050;-76
2024/01/04 06:55:46;;;;;;;0.20;0.20;;;;;;;5.61;100.00;99651.97;5041062;28;20048;-72
2024/01/04 06:58:11;;;;;;;0.40;0.40;;;;;;;5.13;100.00;99559.69;5031035;28;20489;-72
2024/01/04 07:00:37;;;;;;;0.57;0.55;;;;;;;6.12;100.00;99718.34;5020040;28;20060;-73
2024/01/04 07:03:03;;;;;;;0.40;0.40;;;;;;;6.03;100.00;99689.63;5037673;28;20045;-72
2024/01/04 07:05:29;;;;;;;0.50;0.50;;;;;;;5.85;100.00;99651.31;5025088;28;20128;-72
2024/01/04 07:07:55;;;;;;;1.08;1.02;;;;;;;6.07;100.00;99691.38;5035791;28;20056;-74
2024/01/04 07:10:21;;;;;;;0.20;0.20;;;;;;;6.23;100.00;99709.72;5029137;28;20052;-73
2024/01/04 07:12:47;;;;;;;0.20;0.20;;;;;;;5.90;100.00;99630.50;5021562;28;20476;-74
2024/01/04 07:15:13;;;;;;;0.25;0.25;;;;;;;5.88;100.00;99627.00;5029833;28;20072;-73
2024/01/04 07:17:39;;;;;;;2.58;2.47;;;;;;;6.37;100.00;99696.75;5031878;28;20072;-74
2024/01/04 07:20:05;;;;;;;0.30;0.30;;;;;;;6.43;100.00;99708.09;5025185;28;20037;-73
2024/01/04 07:22:30;;;;;;;0.32;0.32;;;;;;;6.67;100.00;99724.72;5028495;28;20041;-73
2024/01/04 07:24:56;;;;;;;0.50;0.47;;;;;;;6.69;100.00;99718.63;5032214;28;20123;-73
2024/01/04 07:27:22;;;;;;;0.77;0.77;;;;;;;6.26;100.00;99621.16;5036644;28;20029;-73
2024/01/04 07:29:48;;;;;;;0.40;0.40;;;;;;;6.73;100.00;99702.16;5016164;28;20056;-74
2024/01/04 07:32:18;;;;;;;0.70;0.70;;;;;;;6.35;100.00;99631.63;5033338;28;20075;-73
2024/01/04 07:34:44;;;;;;;13.68;6.68;;;;;;;5.07;100.00;99398.44;5034037;28;20045;-74
2024/01/04 07:37:11;;;;;;;0.65;0.65;;;;;;;6.33;100.00;99618.59;5025934;28;20042;-73
2024/01/04 07:39:36;;;;;;;0.30;0.30;;;;;;;6.30;100.00;99607.31;5028526;28;20049;-75
2024/01/04 07:42:02;;;;;;;0.68;0.68;;;;;;;6.82;100.00;99716.09;5021133;28;20041;-73
2024/01/04 07:44:28;;;;;;;1.88;0.95;;;;;;;6.92;100.00;99695.25;5018089;28;20076;-73
2024/01/04 07:46:53;;;;;;;0.45;0.45;;;;;;;6.26;100.00;99610.75;5032178;28;20041;-74
2024/01/04 07:49:19;;;;;;;0.35;0.35;;;;;;;6.36;100.00;99619.47;5034897;28;20041;-73
2024/01/04 07:51:44;;;;;;;0.20;0.20;;;;;;;6.80;100.00;99673.50;5038811;28;20065;-73
2024/01/04 07:54:10;;;;;;;0.93;0.93;;;;;;;6.37;100.00;99618.59;5040463;28;20060;-73
2024/01/04 07:56:35;;;;;;;0.20;0.20;;;;;;;6.79;100.00;99680.47;5028461;28;20076;-73
2024/01/04 07:59:01;;;;;;;0.52;0.52;;;;;;;6.27;100.00;99595.09;5032886;28;20053;-73
2024/01/04 08:01:27;;;;;;;0.75;0.75;;;;;;;7.02;100.00;99710.94;5024228;28;20124;-73
2024/01/04 08:03:52;;;;;;;0.82;0.82;;;;;;;6.99;100.00;99711.81;5015340;28;20091;-74
2024/01/04 08:06:18;;;;;;;0.30;0.30;;;;;;;7.31;100.00;99722.34;5016356;28;20073;-74
2024/01/04 08:08:44;;;;;;;0.30;0.30;;;;;;;7.19;100.00;99683.19;5034943;28;20029;-72
2024/01/04 08:11:09;;;;;;;0.30;0.30;;;;;;;7.44;100.00;99710.16;5036823;28;20084;-73
2024/01/04 08:13:35;;;;;;;9.07;7.68;;;;;;;6.92;100.00;99609.19;5029557;28;20045;-73
2024/01/04 08:16:04;;;;;;;0.47;0.47;;;;;;;7.37;100.00;99695.38;5023421;28;20092;-73
2024/01/04 08:18:31;;;;;;;1.85;1.75;;;;;;;7.56;100.00;99693.63;5031540;28;20041;-74
2024/01/04 08:20:56;;;;;;;1.70;1.60;;;;;;;7.63;100.00;99689.28;5035179;28;20068;-73
2024/01/04 08:23:22;;;;;;;1.50;1.48;;;;;;;7.61;100.00;99676.25;5032701;28;20168;-73
2024/01/04 08:25:48;;;;;;;0.30;0.30;;;;;;;7.66;100.00;99666.69;5034049;28;20547;-75
2024/01/04 08:28:14;;;;;;;1.35;1.25;;;;;;;7.48;100.00;99631.00;5030595;28;20049;-72
2024/01/04 08:30:39;;;;;;;1.05;0.95;;;;;;;7.63;100.00;99651.00;5025656;28;20049;-74
2024/01/04 08:33:05;;;;;;;0.45;0.45;;;;;;;7.70;100.00;99651.88;5033415;28;20765;-73
2024/01/04 08:35:30;;;;;;;3.33;3.22;;;;;;;7.31;100.00;99557.06;5032239;28;20127;-73
2024/01/04 08:37:56;;;;;;;0.28;0.28;;;;;;;7.79;100.00;99612.69;5040160;28;20469;-74
2024/01/04 08:40:21;;;;;;;2.53;2.40;;;;;;;7.92;100.00;99622.25;5033505;28;20382;-74
2024/01/04 08:42:47;;;;;;;1.98;1.88;;;;;;;8.12;100.00;99640.47;5015191;28;20160;-72
2024/01/04 08:45:13;;;;;;;0.40;0.40;;;;;;;7.37;100.00;99526.63;5029622;28;20056;-73
2024/01/04 08:47:40;;;;;;;0.30;0.30;;;;;;;8.16;100.00;99617.84;5030309;28;20657;-73
2024/01/04 08:50:06;;;;;;;13.38;4.50;;;;;;;7.51;100.00;99499.59;5028635;28;20049;-72
2024/01/04 08:52:32;;;;;;;0.20;0.20;;;;;;;7.75;100.00;99530.88;5028941;28;20034;-73
2024/01/04 08:54:58;;;;;;;0.30;0.30;;;;;;;8.22;100.00;99603.00;5020856;28;20041;-73
2024/01/04 08:57:24;;;;;;;3.30;3.05;;;;;;;8.32;100.00;99603.84;5012027;28;20080;-74
2024/01/04 08:59:49;;;;;;;1.52;1.42;;;;;;;7.85;100.00;99491.69;5020581;28;20501;-75
2024/01/04 09:02:15;;;;;;;0.20;0.20;;;;;;;8.50;100.00;99583.75;5025265;28;20049;-74
2024/01/04 09:04:40;;;;;;;0.30;0.30;;;;;;;8.14;100.00;99492.41;5019161;28;20057;-74
2024/01/04 09:07:08;;;;;;;7.80;7.18;;;;;;;8.69;100.00;99590.63;5028126;28;20045;-74
2024/01/04 09:09:34;;;;;;;0.30;0.30;;;;;;;8.32;100.00;99504.50;5028002;28;20040;-74
2024/01/04 09:12:00;;;;;;;2.55;2.45;;;;;;;8.85;100.00;99589.66;5019704;28;20071;-75
2024/01/04 09:14:26;;;;;;;0.20;0.20;;;;;;;8.37;100.00;99489.66;5027326;28;20135;-73
2024/01/04 09:16:52;;;;;;;0.20;0.20;;;;;;;8.83;100.00;99551.31;5025906;28;20050;-74
2024/01/04 09:19:18;;;;;;;0.30;0.30;;;;;;;8.61;100.00;99493.03;5024098;28;20141;-73
2024/01/04 09:21:47;;;;;;;0.20;0.20;;;;;;;8.71;100.00;99480.75;5027629;28;20472;-73
2024/01/04 09:24:13;;;;;;;0.30;0.30;;;;;;;9.25;100.00;99572.81;5023937;28;20423;-74
2024/01/04 09:26:40;;;;;;;0.30;0.30;;;;;;;9.24;100.00;99568.44;5026162;28;20512;-73
2024/01/04 09:29:06;;;;;;;0.28;0.28;;;;;;;9.14;100.00;99517.91;5027135;28;20065;-73
2024/01/04 09:31:32;;;;;;;0.40;0.40;;;;;;;9.10;100.00;99529.28;5021427;28;20088;-74
2024/01/04 09:33:57;;;;;;;0.20;0.20;;;;;;;9.51;100.00;99554.25;5025318;28;20100;-73
2024/01/04 09:36:23;;;;;;;1.67;1.58;;;;;;;9.01;100.00;99462.22;5026928;28;20045;-74
2024/01/04 09:38:49;;;;;;;0.73;0.73;;;;;;;9.50;100.00;99540.28;5027546;28;20024;-73
2024/01/04 09:41:22;;;;;;;1.38;1.10;;;;;;;9.74;100.00;99551.41;5020927;28;20045;-74
2024/01/04 09:43:54;;;;;;;0.20;0.20;;;;;;;9.19;100.00;99441.97;5024814;28;20045;-74
2024/01/04 09:46:23;;;;;;;0.20;0.20;;;;;;;9.97;100.00;99545.88;5025368;28;20476;-73
2024/01/04 09:49:01;;;;;;;2.28;2.15;;;;;;;9.96;100.00;99546.78;5024182;28;20045;-73
2024/01/04 09:51:28;;;;;;;0.30;0.30;;;;;;;10.07;100.00;99516.06;5026708;28;20029;-74
2024/01/04 09:53:54;;;;;;;1.35;1.25;;;;;;;10.13;100.00;99513.34;5025983;28;20037;-74
2024/01/04 09:56:25;;;;;;;0.88;0.70;;;;;;;10.05;100.00;99452.31;5026307;28;20072;-73
2024/01/04 09:58:52;;;;;;;0.40;0.40;;;;;;;10.39;100.00;99500.81;5021118;28;20086;-73
2024/01/04 10:01:32;;;;;;;2.10;2.00;;;;;;;10.40;100.00;99463.25;5021985;28;20050;-72
2024/01/04 10:04:00;;;;;;;0.95;0.95;;;;;;;10.76;100.00;99507.25;5026516;28;20040;-73
2024/01/04 10:06:32;;;;;;;1.98;1.65;;;;;;;10.40;100.00;99439.63;5027133;28;20116;-74
2024/01/04 10:09:23;;;;;;;2.45;1.75;;;;;;;10.71;100.00;99480.22;5017049;28;20489;-73
2024/01/04 10:11:49;;;;;;;0.30;0.30;;;;;;;11.06;100.00;99491.91;5018716;28;20077;-73
2024/01/04 10:14:15;;;;;;;1.38;1.27;;;;;;;11.13;100.00;99480.41;5024893;28;20478;-73
2024/01/04 10:16:42;;;;;;;1.30;1.25;;;;;;;10.48;100.00;99393.16;5020765;28;20072;-73
2024/01/04 10:19:09;;;;;;;2.72;2.33;;;;;;;10.94;100.00;99440.50;5025112;28;20045;-73
2024/01/04 10:21:34;;;;;;;0.73;0.57;;;;;;;10.86;100.00;99431.00;5023403;28;20051;-73
2024/01/04 10:24:01;;;;;;;0.20;0.20;;;;;;;11.28;100.00;99455.63;5027249;28;20117;-74
2024/01/04 10:26:29;;;;;;;0.77;0.77;;;;;;;11.22;100.00;99431.28;5016588;28;20100;-74
2024/01/04 10:28:56;;;;;;;3.33;1.73;;;;;;;10.83;100.00;99353.19;5025929;28;20042;-73
2024/01/04 10:31:22;;;;;;;0.82;0.82;;;;;;;11.45;100.00;99423.81;5023250;28;20053;-72
2024/01/04 10:34:09;;;;;;;1.02;0.95;;;;;;;11.51;100.00;99420.19;5024192;28;20045;-75
2024/01/04 10:36:38;;;;;;;2.85;1.73;;;;;;;11.63;100.00;99412.06;5020324;28;20029;-73
2024/01/04 10:39:08;;;;;;;0.32;0.32;;;;;;;11.80;100.00;99411.72;5023383;28;20057;-73
2024/01/04 10:41:34;;;;;;;0.75;0.73;;;;;;;11.67;100.00;99373.44;5021543;28;20061;-73
2024/01/04 10:44:06;;;;;;;0.70;0.70;;;;;;;11.97;100.00;99417.50;5024699;28;20053;-73
2024/01/04 10:46:36;;;;;;;0.60;0.57;;;;;;;11.82;100.00;99378.38;5023315;28;20061;-73
2024/01/04 10:49:05;;;;;;;0.85;0.85;;;;;;;11.45;100.00;99313.50;5022048;28;20103;-74
2024/01/04 10:51:33;;;;;;;1.65;1.55;;;;;;;11.93;100.00;99372.91;5020449;28;20363;-74
2024/01/04 10:54:00;;;;;;;0.30;0.30;;;;;;;11.54;100.00;99292.28;5007079;28;20046;-74
2024/01/04 10:56:30;;;;;;;0.80;0.73;;;;;;;11.37;100.00;99292.63;5023319;28;20048;-73
2024/01/04 10:58:57;;;;;;;1.10;0.98;;;;;;;11.44;100.00;99293.34;5021468;28;20056;-73
2024/01/04 11:01:22;;;;;;;1.95;1.85;;;;;;;11.98;100.00;99371.03;5021670;28;20140;-73
2024/01/04 11:03:49;;;;;;;1.15;1.05;;;;;;;11.48;100.00;99278.41;5022932;28;20103;-74
2024/01/04 11:06:15;;;;;;;2.17;1.45;;;;;;;11.67;100.00;99263.09;5005533;28;20044;-73
2024/01/04 11:08:41;;;;;;;0.47;0.30;;;;;;;11.76;100.00;99291.78;5025425;28;20056;-75
2024/01/04 11:11:09;;;;;;;1.17;1.08;;;;;;;12.28;100.00;99361.59;5019978;28;20053;-73
2024/01/04 11:13:35;;;;;;;0.35;0.35;;;;;;;12.57;100.00;99358.25;5017375;28;20064;-74
2024/01/04 11:16:11;;;;;;;0.70;0.70;;;;;;;12.70;100.00;99319.31;5023454;28;20053;-74
2024/01/04 11:19:22;;;;;;;1.40;1.27;;;;;;;12.82;100.00;99321.59;5024172;28;20072;-74
2024/01/04 11:22:17;;;;;;;0.40;0.40;;;;;;;12.93;100.00;99342.41;4942319;28;20514;-73
2024/01/04 11:25:06;;;;;;;0.90;0.68;;;;;;;13.02;100.00;99315.81;5002372;28;20068;-74
2024/01/04 11:27:32;;;;;;;1.75;1.65;;;;;;;13.14;100.00;99329.56;5024811;28;20025;-74
2024/01/04 11:29:59;;;;;;;1.17;1.05;;;;;;;12.23;100.00;99231.97;5020894;28;20107;-74